Terminal Aerodrome Forecast
Issued by NWS

Home | Current Version | Previous Version | Text Only | Print | Product List | Glossary On
Versions: 1 2 3 4 5 6 7 8 9 10 11 12 13 14 15 16 17 18 19 20
000
FTUS43 KGRR 231126
TAFBTL
TAF
KBTL 231126Z 2312/2412 14007KT P6SM OVC005
     FM231300 19007KT 2SM -RA OVC003
     FM231600 21008KT 4SM -DZ BR OVC003
     FM231700 24012G22KT P6SM OVC008
     FM240600 33004KT P6SM OVC020=

USA.gov is the U.S. government's official web portal to all federal, state and local government web resources and services.